CDT,Max TemperatureF,Mean TemperatureF,Min TemperatureF,Max Dew PointF,MeanDew PointF,Min DewpointF,Max Humidity, Mean Humidity, Min Humidity, Max Sea Level PressureIn, Mean Sea Level PressureIn, Min Sea Level PressureIn, Max VisibilityMiles, Mean VisibilityMiles, Min VisibilityMiles, Max Wind SpeedMPH, Mean Wind SpeedMPH, Max Gust SpeedMPH,PrecipitationIn, CloudCover, Events, WindDirDegrees
2011-10-1,75,64,53,46,42,36,75,47,26,30.09,30.02,29.93,10,10,10,16,11,23,0.00,0,,347
2011-10-2,73,60,48,44,42,39,76,52,28,30.15,30.10,30.06,10,10,10,14,8,20,0.00,0,,342
2011-10-3,78,60,41,46,39,32,90,50,19,30.23,30.16,30.11,10,10,10,10,5,,0.00,0,,354
2011-10-4,83,65,48,50,45,40,87,53,23,30.24,30.18,30.13,10,10,10,8,3,,0.00,0,,9
2011-10-5,84,68,52,56,51,48,87,59,31,30.23,30.16,30.10,10,10,10,8,6,,0.00,0,,45
2011-10-6,84,69,54,57,53,50,89,62,31,30.22,30.16,30.12,10,10,10,12,7,,0.00,0,,46
2011-10-7,84,71,58,62,56,53,85,60,35,30.27,30.21,30.16,10,10,10,13,8,20,0.00,0,,48
2011-10-8,84,74,63,62,58,55,82,61,39,30.26,30.20,30.13,10,10,10,18,11,26,0.00,1,,60
2011-10-9,75,70,65,63,59,51,87,72,58,30.17,30.10,30.01,10,10,7,20,13,25,0.00,4,Rain,43
2011-10-10,68,66,65,65,64,61,95,90,82,30.01,29.90,29.81,10,9,1,18,12,26,0.21,7,Rain,13
2011-10-11,71,68,64,68,65,64,100,92,83,29.86,29.82,29.78,10,9,5,16,11,,0.00,8,Rain,19
2011-10-12,70,64,60,66,63,61,100,93,78,29.86,29.83,29.80,10,8,1,7,4,,0.01,7,Rain,321
2011-10-13,82,70,59,70,61,58,100,92,45,29.82,29.78,29.66,10,4,0,16,3,22,0.02,1,Fog,231
2011-10-14,82,69,55,58,51,41,92,63,24,30.03,29.92,29.83,10,10,10,12,5,,0.00,0,,311
2011-10-15,86,67,48,54,49,44,92,60,23,30.12,30.07,30.03,10,10,10,8,1,,0.00,0,,340
2011-10-16,88,70,51,55,51,46,93,58,24,30.16,30.09,30.01,10,10,10,7,2,,0.00,0,,52
2011-10-17,88,70,51,58,54,49,94,63,27,30.04,29.94,29.84,10,10,10,7,2,,0.00,0,,99
2011-10-18,79,68,58,70,66,56,100,81,68,29.83,29.67,29.53,10,10,2,12,6,,0.00,4,,106
2011-10-19,67,58,46,66,50,32,100,76,38,29.93,29.63,29.51,10,10,10,20,10,31,0.00,6,Rain,294
2011-10-20,64,50,38,38,36,33,89,62,32,30.12,30.03,29.93,10,10,10,15,8,,0.00,0,,272
2011-10-21,68,52,36,39,35,31,93,58,25,30.22,30.15,30.10,10,10,10,13,4,,0.00,0,,321
2011-10-22,71,54,38,40,36,33,86,55,24,30.18,30.11,30.05,10,10,9,10,4,,0.00,0,,354
2011-10-23,74,56,39,45,41,37,92,63,29,30.13,30.08,30.04,10,10,10,7,1,,0.00,0,,50
2011-10-24,79,62,46,54,49,44,90,64,41,30.19,30.13,30.08,10,10,10,8,2,,0.00,2,,351
2011-10-25,81,63,46,50,46,42,91,58,25,30.25,30.17,30.12,10,10,10,10,3,,0.00,0,,116
2011-10-26,80,64,48,54,50,45,89,68,37,30.15,30.06,29.99,10,10,10,8,3,,0.00,2,,49
2011-10-27,81,66,53,62,57,51,91,72,44,29.99,29.93,29.87,10,10,10,9,2,,0.00,4,,231
2011-10-28,82,67,53,64,57,52,100,81,38,29.97,29.92,29.87,10,6,0,14,2,18,0.00,2,Fog,281
2011-10-29,67,58,47,50,38,26,82,56,22,30.14,30.04,29.98,10,10,10,17,13,28,0.00,4,Rain,344
2011-10-30,66,50,34,33,29,26,87,48,22,30.25,30.20,30.15,10,10,10,15,7,24,0.00,0,,42
2011-10-31,72,61,50,49,42,32,74,54,36,30.19,30.16,30.09,10,10,10,9,6,,0.00,2,,19